Loipe Atzenberg gespurt
 
21.02.2018Höhe
ü. NN
ZeitTemperatur (°C)Nieder-
schlag
Luft-
feuchte
Luft-
druck
Wind
StationaktuellMinimumMaximumaktuellMaximum
Allmannsweiler625 m07:50-3,4-5,1 (00:50)-3,4 (07:40)0,0 l/m²97%1019,211,3 km/h (2 Bft) O17,7 km/h (3 Bft) O-NO (07:40)
Allmendingen541 m07:50-2,4-4,2 (00:45)-2,3 (12:15)0,0 l/m²92%1019,44,8 km/h (1 Bft) O16,1 km/h (3 Bft) O-NO (12:25)
Altshausen574 m07:51-3,0-4,3 (02:09)-3,0 (07:48)0,0 l/m²96%1017,717,7 km/h (3 Bft) NO24,1 km/h (4 Bft) N (07:47)
Amstetten-Reutti663 m07:50-3,5-3,5 (08:20)-3,1 (11:15)0,0 l/m²94%1019,814,5 km/h (3 Bft) N19,3 km/h (3 Bft) N-NW (07:10)
Aulendorf570 m07:50-2,9-4,0 (02:08)-2,9 (07:34)0,0 l/m²93%1018,59,7 km/h (2 Bft) NO20,9 km/h (4 Bft) N (05:40)
Bad Krozingen233 m07:50-0,7-0,8 (07:15)0,3 (13:50)0,0 l/m²81%1020,116,5 km/h (3 Bft) N-NO26,4 km/h (4 Bft) N (14:25)
Bad Schussenried572 m07:50-2,9-4,2 (01:55)-2,9 (07:45)0,0 l/m²96%1017,614,5 km/h (3 Bft) NO19,3 km/h (3 Bft) NO (04:40)
Bergatreute615 m07:50-3,0-4,3 (01:15)-2,9 (07:15)0,0 l/m²96%1019,117,7 km/h (3 Bft) NO20,9 km/h (4 Bft) O-NO (06:10)
Biberach (Riss), Boehringer533 m07:40-2,5-4,7 (00:30)-2,5 (07:40)0,0 l/m²96%1017,99,4 km/h (2 Bft) N-NO21,6 km/h (4 Bft) NO (07:20)
Biberach (Riss), Realschule553 m07:50-2,8-4,7 (01:10)-2,8 (07:40)0,0 l/m²94%1020,017,7 km/h (3 Bft) N-NO17,7 km/h (3 Bft) N-NO (06:50)
Bodnegg-Rotheidlen677 m07:50-4,1-5,3 (01:40)-4,1 (07:35)0,0 l/m²95%1019,114,5 km/h (3 Bft) NO22,5 km/h (4 Bft) N (05:40)
Burgrieden523 m07:50-3,3-5,5 (00:25)-3,1 (06:25)0,0 l/m²91%1019,614,5 km/h (3 Bft) N-NO22,5 km/h (4 Bft) N (07:06)
Burgrieden-Hochstetten510 m07:50-2,7-6,3 (00:20)-2,5 (12:05)0,0 l/m²91%1019,917,7 km/h (3 Bft) NO22,5 km/h (4 Bft) N-NO (07:40)
Donauwörth411 m07:50-3,6-3,6 (07:50)-2,1 (03:50)0,0 l/m²92%1020,68,0 km/h (2 Bft) NW16,1 km/h (3 Bft) N-NW (05:55)
Ebersbach579 m07:50-3,1-4,4 (02:10)-3,1 (07:40)0,0 l/m²96%1020,022,5 km/h (4 Bft) NO24,1 km/h (4 Bft) NO (05:00)
Ebersbach-Boos605 m07:50-3,4-4,9 (01:40)-3,4 (07:35)0,0 l/m²97%1019,829,0 km/h (5 Bft) O-NO30,6 km/h (5 Bft) N-NO (06:50)
Ebersbach-Menzenweiler661 m07:50-3,8-5,3 (02:10)-3,7 (07:50)0,0 l/m²98%1019,80,0 km/h (0 Bft) N-NO0,0 km/h (0 Bft) NO (00:00)
Erlenmoos645 m07:50-3,0-4,2 (00:30)-2,9 (07:45)0,0 l/m²83%1019,412,9 km/h (3 Bft) NO19,3 km/h (3 Bft) O-NO (00:40)
Ertingen569 m07:55-3,1-4,6 (01:10)-3,1 (07:50)0,0 l/m²95%1019,217,7 km/h (3 Bft) N17,7 km/h (3 Bft) N-NW (07:55)
Friedrichshafen405 m07:50-1,3-2,4 (02:25)-1,2 (13:05)0,0 l/m²88%1019,29,7 km/h (2 Bft) NO22,5 km/h (4 Bft) N-NO (02:40)
Furkajoch (AT)1630 m07:30-10,8-10,8 (06:20)-9,7 (00:00)0,0 l/m²92%1014,817,7 km/h (3 Bft) N-NO20,9 km/h (4 Bft) N-NO (07:05)
Günzburg443 m07:50-2,2-2,6 (00:00)-2,2 (01:40)0,0 l/m²92%1017,36,4 km/h (2 Bft) N11,3 km/h (2 Bft) N-NO (05:40)
Höchsten802 m07:50-4,9-6,2 (02:50)-4,8 (07:50)0,0 l/m²94%1017,30,0 km/h (0 Bft) NO0,0 km/h (0 Bft) NO (00:00)
Horgenzell618 m07:50-4,7-4,9 (02:50)-3,9 (00:00)0,0 l/m²93%1017,46,4 km/h (2 Bft) O27,4 km/h (4 Bft) NO (02:05)
Hoßkirch632 m07:50-3,6-4,9 (02:25)-3,6 (07:50)0,0 l/m²96%1018,624,1 km/h (4 Bft) NO27,4 km/h (4 Bft) N-NO (05:40)
Isny im Allgäu695 m07:50-3,8-4,7 (01:35)-3,8 (07:50)0,0 l/m²92%1018,411,3 km/h (2 Bft) NO19,3 km/h (3 Bft) N-NO (07:05)
Kappel-Grafenhausen163 m07:45-1,7-1,7 (07:40)0,8 (16:55)0,0 l/m²88%1018,812,9 km/h (3 Bft) N-NO20,9 km/h (4 Bft) N-NO (04:45)
Kirchberg an der Iller584 m07:50-3,0-4,1 (23:35)-3,0 (13:45)0,0 l/m²83%1009,96,0 km/h (2 Bft) N7,7 km/h (2 Bft) SW (07:30)
Kißlegg-Staibshof709 m07:50-4,1-5,3 (00:55)-4,1 (07:35)0,0 l/m²97%1019,412,9 km/h (3 Bft) O-NO20,9 km/h (4 Bft) O (02:00)
Kressbronn398 m07:54-1,9-2,9 (02:54)-1,5 (00:00)0,0 l/m²86%1017,96,4 km/h (2 Bft) N-NO22,5 km/h (4 Bft) N-NO (03:18)
Kreuzthal-Steinbergalm930 m07:50-5,6-6,4 (01:30)-5,5 (07:50)0,0 l/m²100%1019,03,6 km/h (1 Bft) N-NO21,2 km/h (4 Bft) W-NW (02:10)
Kreuzthal-Steinberggipfel1040 m07:50-6,5-7,4 (01:30)-6,4 (07:50)-100%1019,013,3 km/h (3 Bft) N-NO40,3 km/h (6 Bft) N (02:10)
Kristberg im Montafon (AT)1425 m07:50-8,9-9,0 (06:45)-8,2 (00:15)0,4 l/m²93%1017,30,0 km/h (0 Bft) NO4,8 km/h (1 Bft) N-NW (00:10)
Laupheim500 m07:50-2,9-4,6 (00:15)-2,6 (06:50)0,0 l/m²90%1019,111,3 km/h (2 Bft) NO20,9 km/h (4 Bft) O-NO (07:30)
Leutkirch-Heggelbach670 m07:50-3,7-5,7 (00:55)-3,7 (07:15)0,0 l/m²92%1017,80,0 km/h (0 Bft) N-NO12,9 km/h (3 Bft) NO (01:10)
Lindau-Insel420 m05:50-1,9-2,5 (02:45)-1,2 (13:35)0,0 l/m²84%1017,48,0 km/h (2 Bft) N-NO17,7 km/h (3 Bft) NO (01:45)
Lindau-Stadt412 m07:50-1,9-2,8 (02:45)-1,3 (13:35)0,0 l/m²87%1018,111,3 km/h (2 Bft) O-NO20,9 km/h (4 Bft) O-NO (07:05)
Maierhöfen im Allgäu733 m08:00-3,6-4,2 (01:10)-3,4 (06:00)0,0 l/m²92%1018,512,9 km/h (3 Bft) O25,7 km/h (4 Bft) O (01:25)
Maselheim-Sulmingen548 m07:50-3,2-5,9 (00:15)-3,2 (13:10)0,0 l/m²94%1020,817,7 km/h (3 Bft) O19,3 km/h (3 Bft) O (07:35)
Mietingen-Baltringen528 m07:50-3,1-5,8 (00:25)-2,9 (06:40)0,0 l/m²90%1021,314,5 km/h (3 Bft) O-SO17,7 km/h (3 Bft) O-NO (07:40)
Mindelheim-Apfeltrach620 m07:51-3,6-4,6 (23:53)-3,6 (14:46)0,0 l/m²95%1020,08,0 km/h (2 Bft) NO11,3 km/h (2 Bft) N-NW (17:36)
Neresheim552 m07:00-4,0-4,5 (01:00)-3,4 (04:00)1,0 l/m²98%1017,510,1 km/h (2 Bft) N-NO10,1 km/h (2 Bft) N-NO (07:00)
Neukirch570 m07:50-2,7-4,0 (02:15)-2,7 (13:30)0,0 l/m²93%1019,00,0 km/h (0 Bft) N0,0 km/h (0 Bft) N (08:00)
Ochsenhausen613 m07:50-2,9-4,9 (00:30)-2,9 (13:25)0,0 l/m²89%1019,40,0 km/h (0 Bft) W9,7 km/h (2 Bft) W (10:20)
Ostrach619 m07:50-2,6-3,6 (02:25)-2,5 (13:40)0,0 l/m²95%1018,014,5 km/h (3 Bft) N22,5 km/h (4 Bft) N-NO (05:50)
Ravensburg428 m07:50-1,3-2,3 (01:45)-1,3 (07:25)0,0 l/m²90%1018,117,7 km/h (3 Bft) N-NO25,7 km/h (4 Bft) O-NO (02:25)
Ravensburg-Wernsreute511 m07:50-2,6-3,7 (04:08)-2,6 (13:28)0,0 l/m²92%1020,822,5 km/h (4 Bft) NO33,8 km/h (5 Bft) NO (06:32)
Reichenbach an der Fils343 m07:50-1,5-2,4 (03:15)-1,5 (07:45)0,0 l/m²84%1022,70,0 km/h (0 Bft) N-NW0,0 km/h (0 Bft) N (00:00)
Reinstetten559 m07:50-3,0-5,7 (00:15)-3,0 (07:45)0,0 l/m²94%1019,817,7 km/h (3 Bft) N-NO20,9 km/h (4 Bft) N (07:25)
Riedlingen530 m07:50-2,7-4,1 (01:05)-2,7 (07:50)0,0 l/m²93%1019,612,9 km/h (3 Bft) O20,9 km/h (4 Bft) N-NO (06:30)
Rißtissen489 m07:50-2,1-4,4 (00:15)-1,9 (06:45)0,0 l/m²93%1017,211,3 km/h (2 Bft) O-NO20,9 km/h (4 Bft) N-NO (07:25)
Schemmerhofen520 m07:50-2,6-4,6 (00:25)-2,4 (07:10)0,0 l/m²94%1019,116,1 km/h (3 Bft) NO22,5 km/h (4 Bft) O-NO (07:40)
Silbertal im Montafon (AT)884 m07:50-4,0-4,0 (07:45)-3,4 (00:00)0,2 l/m²94%1017,41,6 km/h (1 Bft) W-NW4,8 km/h (1 Bft) W (00:20)
Tettnang466 m07:50-1,8-3,0 (02:15)-1,8 (00:00)0,0 l/m²87%1017,716,1 km/h (3 Bft) O-NO27,4 km/h (4 Bft) N-NW (02:40)
Tuttlingen662 m07:50-4,7-4,8 (03:35)-4,3 (00:00)0,0 l/m²88%1019,312,2 km/h (3 Bft) W-NW21,4 km/h (4 Bft) O-SO (03:45)
Waldburg707 m07:50-3,6-4,9 (01:30)-3,6 (07:40)0,0 l/m²95%1018,69,7 km/h (2 Bft) NW27,4 km/h (4 Bft) O-NO (02:35)
Waltenhofen im Allgäu720 m07:50-3,7-4,2 (00:10)-3,6 (04:45)0,0 l/m²88%1018,01,6 km/h (1 Bft) NO1,6 km/h (1 Bft) NO (00:40)
Weingarten500 m07:50-1,9-3,1 (01:40)-1,9 (07:50)0,0 l/m²91%1018,712,9 km/h (3 Bft) N19,3 km/h (3 Bft) N (02:25)
Winterlingen785 m07:00-5,1-5,4 (02:15)-4,9 (00:00)0,0 l/m²96%1017,34,3 km/h (1 Bft) NO7,9 km/h (2 Bft) N-NW (05:50)
 
Siebenschläfertag - richtungweisend für den Hochsommer?
So wie das Wetter am 27. Juni, dem Siebenschläfertag ist, so soll es auch im Wesentlichen den Hochsommer hindurch sein. "Wenn es an Siebenschläfer regnet, ist man sieben Wochen mit Regen gesegnet" oder "Das Wetter am Siebenschläfertag sieben Wochen bleiben mag", lauten die wohl bekanntesten Wettersprüche zu diesem richtungweisenden Lostag im bäuerlichen Jahreskalender. Die Erfahrung zeigt, dass tatsächlich häufig um den 27. Juni herum die Weichen für den Sommer gestellt werden. Allerdings ist dabei nicht nur das Wetter am Siebenschläfertag entscheidend, sondern die Witterung zwischen dem 24. Juni und dem 10. Juli. Herrscht in diesem Zeitraum zumeist feucht-kühles Westwindwetter, dann folgt mit 80-prozentiger Wahrscheinlichkeit ein mieser Sommer. Überwiegt dagegen Hochdruckeinfluss, dann stellt sich bis in den September hinein wiederholt trocken-warmes Schönwetter ein.

Bauernregeln - besser als der Computer?
Für die einen sind die Bauernregeln zuverlässiger als jede computergestützte Wetteranalyse, andere lehnen sie kategorisch ab und nennen sie überlieferte Relikte aus der Zeit des Aberglaubens. Bäuerliche Wettersprüche, die sich auf Großwetterlagen beziehen, die ganz Mitteleuropa betreffen, sind jedoch durchaus zuverlässig, wenn auch manchmal widersprüchlich. Schon vor Jahrhunderten haben die Bauern, neben den Mönchen die ersten Wetterbeobachter, erkannt, dass sich zu bestimmten Zeiten jährlich wiederkehrende Wetterlagen einstellen und daraus Witterungsregelfälle abgeleitet. So droht beispielsweise im Juni mit hoher Wahrscheinlichkeit ein Kälterückfall, die sprichwörtliche 'Schafskälte'. Sie spiegelt sich, ebenso wie die anderen bekannten Witterungsregelfälle wie Eisheilige, Hundstage, Altweibersommer, Weihnachtstauwetter, in den so genannten 'Lostagen' wider, die als Merktage für bestimmte Wetterentwicklungen anzusehen sind. Aber auch hier gilt, nicht das Kalenderdatum ist entscheidend, sondern der Zeitraum um diesen Lostag herum. So können die Eisheiligen ohne weiteres bereits Anfang Mai oder erst zum Monatsende hin auftreten.
Ganz anders verhält es sich mit den bäuerlichen Wetterweisheiten, die vor Ort entstanden sind. Diese Merkregeln beziehen sich auf lokale oder regionale Besonderheiten, die, in Reimform gebracht, zunächst mündlich überliefert und später, wahllos gesammelt, in Büchern veröffentlicht wurden. Dabei lässt sich heute kaum mehr nachvollziehen, wo sie entstanden sind. Diese Bauernregeln sind aber nur für die Region zutreffend, aus der sie stammen.

Gregorianische Kalenderreform
Mit der Datierung der bäuerlichen Wettersprüche ist es ohnehin so eine Sache, denn durch den Gregorianischen Kalender, der 1582 den bis dahin gültigen Julianischen Kalender abgelöst hat, verschieben sich auch die Lostage der Bauernregeln, die vor dieser Reform entstanden sind, um elf Tage.

Hundertjähriger Kalender - Aberglaube und Faszination
Mehr noch als an den Bauernregeln scheiden sich am 100-jährigen Kalender die Geister. Die einen schwören auf ihn, für die anderen ist er schlichtweg Humbug. Herausgeber dieses Kalenders ist ein geschäftstüchtiger Apotheker und Kaufmann aus Nürnberg. Er stützte sich dabei auf wetterkundliche Aufzeichnungen eines fränkischen Abtes, namens Mauritius Knauer, der im 17. Jahrhundert in einem Kloster bei Bamberg gelebt hat. Jedem der sieben damals bekannten Planeten (Merkur, Mond, Saturn, Jupiter, Mars, Sonne und Venus) wies er eine eigene spezifische Witterung zu. In der Annahme, dass sich das Wetter alle sieben Jahre wiederhole, schrieb er mit bescheidenen Mitteln sieben Jahre lang das Wettergeschehen im Frankenland auf. Heute weiß man aber, dass es noch weitere Planeten gibt: Uranus, Neptun und Pluto. Als der findige Kaufmann diese Unterlagen in die Hand bekam, witterte er das Geschäft seines Lebens. Diese Wetterbeobachtungen sind für die Ewigkeit bestimmt, dachte er sich und erweiterte die sieben Jahre Wetteraufzeichnungen zu einem 100-jährigen Kalender. Beim Druck wurden ganze Seiten verwechselt, Texte verschoben und willkürlich geändert. Trotzdem findet der 'Hundertjährige' heute, übersetzt in beinahe alle Sprachen der Welt, in Japan und Nordamerika genauso überzeugte Anhänger wie im Alpenraum oder im Zentralmassiv. Letztendlich bringt er es aber lediglich auf eine Treffsicherheit von etwas mehr als 50 Prozent. Da sind die Wettervorhersagen der viel gescholtenen Meteorologen doch allemal genauer.

 
 statistiken
| messwerte
| wetterbeobachtungspunkte
 
wetterstationen
wetterstationen
- derzeit 66 Stationen
wetterstationen
wetterstationen
- kartographische Darstellung
niederschlagsdatenbank
niederschlagsstationen
- derzeit 102 Stationen
niederschlagsdatenbank
niederschlagsstationen
- kartographische Darstellung
webcams
interessante webcams
im Vorhersagegebiet
 
Di. 7.30 Uhr - Mi. 7.30 Uhr (MEZ)
1.Langenau2,5 l/m²
2.Leutkirch-Adrazhofen1,0 l/m²
3.Pfaffenhofen-Kadeltshofen1,0 l/m²
4.Herbertingen
Drosselweg
0,2 l/m²
5.Öpfingen0,2 l/m²
6.Mittelbiberach-Reute0,1 l/m²
7.Ochsenhausen0,1 l/m²
8.Bad Waldsee-Haisterkirch0,1 l/m²
9.Weingarten
Laurastraße
0,1 l/m²
10.Bad Schussenried
Konradstraße
0,1 l/m²
11.Aulendorf0,0 l/m²
12.Füramoos0,0 l/m²
13.Sigmaringendorf0,0 l/m²
 
Mi. 21.02.2018 - 7.30 Uhr (MEZ)
1.Ochsenhausen20 cm
2.Herbertingen
Drosselweg
18cm
3.Mittelbiberach-Reute15 cm
4.Bad Saulgau
Walserweg
15 cm
5.Öpfingen14 cm
6.Bad Schussenried
Konradstraße
12 cm
7.Tuttlingen-Möhringen
Eßlinger Straße
12 cm
8.Pfaffenhofen-Kadeltshofen11 cm
9.Langenau10cm
10.Leutkirch-Adrazhofen8 cm
11.Aulendorf6 cm
12.Riedhausen2 cm
13.Weingarten
Laurastraße
Reste
 
  treffpunkt & service

zugriffe:
insgesamt: 35.821.199
aktueller monat: 240.914
heute: 1.734
momentan online: 70
 
 
monatshöchstwert: 653.625
vorheriger monat: 408.471
gestern: 10.639
tageshöchstwert: 41.209
 
wetterwarte süd
 
konradstraße 3
info@wetterwarte-sued.com
roland roth
 
88427 bad schussenried